Old Town, FL

1:15 PM EST on November 17, 2019 (GMT -0500)
Old Town | | Change Station

Elev 46 ft 29.50 °N, 83.02 °W | Updated 14 minutes ago

Overcast
Overcast
55.1 °F
Feels Like 55.1 °F
N
0
Wind Variable Wind from NNW
Gusts 2.0 mph

Today
High -- | Low -- °F
--% Chance of Precip.
Yesterday
High -- | Low -- °F
Precip. -- in
Pressure 29.96 in
Visibility 10.0 miles
Clouds Overcast 1300 ft
Dew Point 50 °F
Humidity 82%
Rainfall 0.00 in
Snow Depth Not available.
6:57 AM 5:35 PM
Waning Gibbous, 73% visible
METAR KGNV 171753Z 36008KT 10SM OVC013 11/07 A2996 RMK AO2 SLP146 T01110072 10111 20089 58019
Pressure 29.96 in
Visibility 10.0 miles
Clouds Overcast 1300 ft
Dew Point 50 °F
Humidity 82%
Rainfall 0.00 in
Snow Depth Not available.
6:57 AM 5:35 PM
Waning Gibbous, 73% visible
METAR KGNV 171753Z 36008KT 10SM OVC013 11/07 A2996 RMK AO2 SLP146 T01110072 10111 20089 58019

Get Severe Weather Alerts

Thanks for signing up!

Be on the lookout for a verification email in your inbox.

You'll start receiving the daily forecast at 6 AM.

×

10-Day Weather Forecast

Almanac

Astronomy

Nov. 17, 2019 Rise Set
Actual Time
Civil Twilight
Nautical Twilight
Astronomical Twilight
Moon
Length of Visible Light
Length of Day
Tomorrow will be .
, % of the Moon is Illuminated

Today's Extremes

State Highs State Lows

Community

WunderPhotos

Category 6

Welcome to Category 6. This is the collective home for Weather Underground's featured writeups by Dr. Jeff Masters (right), Bob Henson (left), Chris Burt, and other regular contributors.

Nearby

Air Quality

  Air Quality AQ Index Pollutant
Not available.

Snow Depth

Station Depth Elevation

Earthquake Activity

City Distance Mag. Time & Date
Minimum magnitude displayed is 2.5.

Coastal Water Temperatures

Place Temperature

Stations

Nearby Weather Stations

Station Location Temp. Windchill Dew Point Humidity Wind Precip. Elev Updated Type
                   

Watches & Warnings

There are currently no watches in effect.